Anderson, California
Current Conditions -  °F | °C
As of 8:53 PM on Sunday 23 Nov 2014 (Local Time) from KRDD Reporting Station
Clear Clear  
Wind Chill: 46°   Ceiling: Unl
Heat Index: 46°   Visibility: 10mi
Dew Point: 38°   Wind: 3mph
Humidity: 73%   Direction: 340°NNW
Pressure: 30.32"   Gusts: NA
Location:  40.45°N, 122.3°W
Report Text: KRDD 240453Z 34003KT 10SM CLR 08/03 A3032 RMK AO2 SLP267 T00780033
Loading
Personal Weather Stations






























Interactive Weather Map New forecast layout! Learn more

10-Day Weather Forecast

Advertisements
Track Severe Weather on mobile